sensor_id;sensor_type;location;lat;lon;timestamp;P1;durP1;ratioP1;P2;durP2;ratioP2
17171;SDS011;8701;50.150;8.756;2022-09-27T00:03:29;1.33;;;1.23;;
17171;SDS011;8701;50.150;8.756;2022-09-27T00:07:32;1.77;;;1.10;;
17171;SDS011;8701;50.150;8.756;2022-09-27T00:11:36;1.43;;;1.00;;
17171;SDS011;8701;50.150;8.756;2022-09-27T00:15:41;1.47;;;1.33;;
17171;SDS011;8701;50.150;8.756;2022-09-27T00:19:43;2.90;;;1.30;;
17171;SDS011;8701;50.150;8.756;2022-09-27T00:23:45;1.33;;;1.23;;
17171;SDS011;8701;50.150;8.756;2022-09-27T00:27:48;0.90;;;0.90;;
17171;SDS011;8701;50.150;8.756;2022-09-27T00:31:52;11.63;;;1.37;;
17171;SDS011;8701;50.150;8.756;2022-09-27T00:35:54;1.40;;;1.30;;
17171;SDS011;8701;50.150;8.756;2022-09-27T00:40:04;1.37;;;1.27;;
17171;SDS011;8701;50.150;8.756;2022-09-27T00:49:03;4.10;;;1.30;;
17171;SDS011;8701;50.150;8.756;2022-09-27T00:53:11;1.30;;;1.20;;
17171;SDS011;8701;50.150;8.756;2022-09-27T00:57:16;1.40;;;1.30;;
17171;SDS011;8701;50.150;8.756;2022-09-27T01:01:21;1.30;;;1.10;;
17171;SDS011;8701;50.150;8.756;2022-09-27T01:05:26;1.33;;;1.20;;
17171;SDS011;8701;50.150;8.756;2022-09-27T01:09:29;1.03;;;1.03;;
17171;SDS011;8701;50.150;8.756;2022-09-27T01:13:34;1.23;;;1.03;;
17171;SDS011;8701;50.150;8.756;2022-09-27T01:17:45;1.80;;;1.23;;
17171;SDS011;8701;50.150;8.756;2022-09-27T01:21:58;1.60;;;1.43;;
17171;SDS011;8701;50.150;8.756;2022-09-27T01:26:09;5.60;;;1.37;;
17171;SDS011;8701;50.150;8.756;2022-09-27T01:30:21;1.33;;;1.23;;
17171;SDS011;8701;50.150;8.756;2022-09-27T01:34:29;1.63;;;1.00;;
17171;SDS011;8701;50.150;8.756;2022-09-27T01:43:17;1.40;;;1.30;;
17171;SDS011;8701;50.150;8.756;2022-09-27T01:47:26;1.20;;;1.00;;
17171;SDS011;8701;50.150;8.756;2022-09-27T01:51:53;1.17;;;1.00;;
17171;SDS011;8701;50.150;8.756;2022-09-27T01:55:59;3.83;;;1.20;;
17171;SDS011;8701;50.150;8.756;2022-09-27T02:00:21;1.23;;;1.03;;
17171;SDS011;8701;50.150;8.756;2022-09-27T02:04:27;1.20;;;1.10;;
17171;SDS011;8701;50.150;8.756;2022-09-27T02:08:46;1.50;;;1.40;;
17171;SDS011;8701;50.150;8.756;2022-09-27T02:13:15;1.83;;;0.97;;
17171;SDS011;8701;50.150;8.756;2022-09-27T02:17:24;2.80;;;1.00;;
17171;SDS011;8701;50.150;8.756;2022-09-27T02:21:38;2.17;;;1.20;;
17171;SDS011;8701;50.150;8.756;2022-09-27T02:25:45;1.30;;;1.20;;
17171;SDS011;8701;50.150;8.756;2022-09-27T02:29:53;1.10;;;1.00;;
17171;SDS011;8701;50.150;8.756;2022-09-27T02:34:01;2.30;;;1.10;;
17171;SDS011;8701;50.150;8.756;2022-09-27T02:38:07;3.30;;;1.13;;
17171;SDS011;8701;50.150;8.756;2022-09-27T02:42:10;1.40;;;1.30;;
17171;SDS011;8701;50.150;8.756;2022-09-27T02:46:18;1.90;;;1.30;;
17171;SDS011;8701;50.150;8.756;2022-09-27T02:50:42;2.30;;;1.40;;
17171;SDS011;8701;50.150;8.756;2022-09-27T02:55:17;2.93;;;1.40;;
17171;SDS011;8701;50.150;8.756;2022-09-27T02:59:42;3.93;;;1.70;;
17171;SDS011;8701;50.150;8.756;2022-09-27T03:04:02;2.90;;;1.20;;
17171;SDS011;8701;50.150;8.756;2022-09-27T03:08:07;2.43;;;1.57;;
17171;SDS011;8701;50.150;8.756;2022-09-27T03:12:12;3.10;;;1.70;;
17171;SDS011;8701;50.150;8.756;2022-09-27T03:16:15;5.53;;;1.50;;
17171;SDS011;8701;50.150;8.756;2022-09-27T03:20:26;4.40;;;1.47;;
17171;SDS011;8701;50.150;8.756;2022-09-27T03:24:41;3.10;;;1.50;;
17171;SDS011;8701;50.150;8.756;2022-09-27T03:28:45;1.87;;;1.40;;
17171;SDS011;8701;50.150;8.756;2022-09-27T03:32:48;3.33;;;1.23;;
17171;SDS011;8701;50.150;8.756;2022-09-27T03:37:09;6.00;;;1.70;;
17171;SDS011;8701;50.150;8.756;2022-09-27T03:41:11;3.50;;;1.50;;
17171;SDS011;8701;50.150;8.756;2022-09-27T03:45:15;8.50;;;1.73;;
17171;SDS011;8701;50.150;8.756;2022-09-27T03:49:18;6.00;;;1.33;;
17171;SDS011;8701;50.150;8.756;2022-09-27T03:53:20;3.53;;;1.67;;
17171;SDS011;8701;50.150;8.756;2022-09-27T03:57:22;3.20;;;1.30;;
17171;SDS011;8701;50.150;8.756;2022-09-27T04:01:26;1.60;;;1.30;;
17171;SDS011;8701;50.150;8.756;2022-09-27T04:05:38;1.50;;;1.20;;
17171;SDS011;8701;50.150;8.756;2022-09-27T04:09:45;1.83;;;1.13;;
17171;SDS011;8701;50.150;8.756;2022-09-27T04:13:47;1.27;;;1.00;;
17171;SDS011;8701;50.150;8.756;2022-09-27T04:17:53;1.17;;;1.07;;
17171;SDS011;8701;50.150;8.756;2022-09-27T04:22:07;1.30;;;1.00;;
17171;SDS011;8701;50.150;8.756;2022-09-27T04:26:10;1.00;;;1.00;;
17171;SDS011;8701;50.150;8.756;2022-09-27T04:30:22;1.30;;;1.10;;
17171;SDS011;8701;50.150;8.756;2022-09-27T04:34:45;1.03;;;1.03;;
17171;SDS011;8701;50.150;8.756;2022-09-27T04:39:06;5.70;;;1.27;;
17171;SDS011;8701;50.150;8.756;2022-09-27T04:43:12;1.10;;;0.87;;
17171;SDS011;8701;50.150;8.756;2022-09-27T04:47:14;1.50;;;0.90;;
17171;SDS011;8701;50.150;8.756;2022-09-27T04:51:19;1.10;;;0.97;;
17171;SDS011;8701;50.150;8.756;2022-09-27T04:55:22;4.60;;;1.00;;
17171;SDS011;8701;50.150;8.756;2022-09-27T04:59:24;1.00;;;0.80;;
17171;SDS011;8701;50.150;8.756;2022-09-27T05:03:27;1.00;;;0.87;;
17171;SDS011;8701;50.150;8.756;2022-09-27T05:07:33;1.00;;;0.90;;
17171;SDS011;8701;50.150;8.756;2022-09-27T05:11:40;1.10;;;1.00;;
17171;SDS011;8701;50.150;8.756;2022-09-27T05:16:01;2.73;;;1.00;;
17171;SDS011;8701;50.150;8.756;2022-09-27T05:20:27;0.93;;;0.93;;
17171;SDS011;8701;50.150;8.756;2022-09-27T05:24:43;1.10;;;1.00;;
17171;SDS011;8701;50.150;8.756;2022-09-27T05:28:46;0.90;;;0.90;;
17171;SDS011;8701;50.150;8.756;2022-09-27T05:32:50;1.43;;;1.00;;
17171;SDS011;8701;50.150;8.756;2022-09-27T05:37:11;0.90;;;0.83;;
17171;SDS011;8701;50.150;8.756;2022-09-27T05:41:17;1.23;;;0.97;;
17171;SDS011;8701;50.150;8.756;2022-09-27T05:45:20;0.90;;;0.80;;
17171;SDS011;8701;50.150;8.756;2022-09-27T05:49:24;0.90;;;0.80;;
17171;SDS011;8701;50.150;8.756;2022-09-27T05:53:27;1.73;;;1.00;;
17171;SDS011;8701;50.150;8.756;2022-09-27T05:57:33;3.63;;;0.90;;
17171;SDS011;8701;50.150;8.756;2022-09-27T06:01:38;3.23;;;1.00;;
17171;SDS011;8701;50.150;8.756;2022-09-27T06:06:01;3.57;;;0.90;;
17171;SDS011;8701;50.150;8.756;2022-09-27T06:10:16;1.17;;;0.87;;
17171;SDS011;8701;50.150;8.756;2022-09-27T06:14:20;0.80;;;0.80;;
17171;SDS011;8701;50.150;8.756;2022-09-27T06:18:37;2.90;;;1.00;;
17171;SDS011;8701;50.150;8.756;2022-09-27T06:22:39;4.60;;;1.10;;
17171;SDS011;8701;50.150;8.756;2022-09-27T06:26:42;1.63;;;0.80;;
17171;SDS011;8701;50.150;8.756;2022-09-27T06:31:10;3.13;;;1.00;;
17171;SDS011;8701;50.150;8.756;2022-09-27T06:35:27;0.80;;;0.73;;
17171;SDS011;8701;50.150;8.756;2022-09-27T06:39:30;2.30;;;1.07;;
17171;SDS011;8701;50.150;8.756;2022-09-27T06:43:46;2.80;;;1.20;;
17171;SDS011;8701;50.150;8.756;2022-09-27T06:48:09;1.10;;;1.00;;
17171;SDS011;8701;50.150;8.756;2022-09-27T06:52:19;2.20;;;1.00;;
17171;SDS011;8701;50.150;8.756;2022-09-27T06:56:21;1.00;;;1.00;;
17171;SDS011;8701;50.150;8.756;2022-09-27T07:00:25;2.13;;;0.80;;
17171;SDS011;8701;50.150;8.756;2022-09-27T07:04:48;3.73;;;1.20;;
17171;SDS011;8701;50.150;8.756;2022-09-27T07:09:12;1.43;;;1.10;;
17171;SDS011;8701;50.150;8.756;2022-09-27T07:13:15;0.97;;;0.97;;
17171;SDS011;8701;50.150;8.756;2022-09-27T07:17:17;1.10;;;1.00;;
17171;SDS011;8701;50.150;8.756;2022-09-27T07:21:24;1.27;;;1.07;;
17171;SDS011;8701;50.150;8.756;2022-09-27T07:25:26;3.70;;;2.87;;
17171;SDS011;8701;50.150;8.756;2022-09-27T07:29:29;1.80;;;1.20;;
17171;SDS011;8701;50.150;8.756;2022-09-27T07:33:33;6.20;;;1.17;;
17171;SDS011;8701;50.150;8.756;2022-09-27T07:37:37;1.93;;;1.30;;
17171;SDS011;8701;50.150;8.756;2022-09-27T07:41:41;1.57;;;1.07;;
17171;SDS011;8701;50.150;8.756;2022-09-27T07:45:45;1.47;;;0.97;;
17171;SDS011;8701;50.150;8.756;2022-09-27T07:50:04;1.50;;;1.40;;
17171;SDS011;8701;50.150;8.756;2022-09-27T07:54:36;3.33;;;1.10;;
17171;SDS011;8701;50.150;8.756;2022-09-27T07:58:57;2.67;;;1.00;;
17171;SDS011;8701;50.150;8.756;2022-09-27T08:03:02;1.93;;;0.70;;
17171;SDS011;8701;50.150;8.756;2022-09-27T08:07:05;2.50;;;1.00;;
17171;SDS011;8701;50.150;8.756;2022-09-27T08:11:13;2.40;;;1.37;;
17171;SDS011;8701;50.150;8.756;2022-09-27T08:15:18;3.13;;;1.77;;
17171;SDS011;8701;50.150;8.756;2022-09-27T08:19:20;2.47;;;1.00;;
17171;SDS011;8701;50.150;8.756;2022-09-27T08:23:49;4.30;;;1.03;;
17171;SDS011;8701;50.150;8.756;2022-09-27T08:28:06;2.50;;;0.90;;
17171;SDS011;8701;50.150;8.756;2022-09-27T08:32:16;1.47;;;0.80;;
17171;SDS011;8701;50.150;8.756;2022-09-27T08:36:19;3.23;;;0.90;;
17171;SDS011;8701;50.150;8.756;2022-09-27T08:40:22;1.57;;;0.93;;
17171;SDS011;8701;50.150;8.756;2022-09-27T08:44:32;1.47;;;0.80;;
17171;SDS011;8701;50.150;8.756;2022-09-27T08:48:48;1.40;;;0.73;;
17171;SDS011;8701;50.150;8.756;2022-09-27T08:52:56;9.50;;;5.17;;
17171;SDS011;8701;50.150;8.756;2022-09-27T08:57:03;3.83;;;1.07;;
17171;SDS011;8701;50.150;8.756;2022-09-27T09:01:12;1.40;;;0.93;;
17171;SDS011;8701;50.150;8.756;2022-09-27T09:05:26;7.30;;;1.30;;
17171;SDS011;8701;50.150;8.756;2022-09-27T09:09:33;5.03;;;1.03;;
17171;SDS011;8701;50.150;8.756;2022-09-27T09:13:52;2.23;;;0.83;;
17171;SDS011;8701;50.150;8.756;2022-09-27T09:18:21;3.97;;;0.97;;
17171;SDS011;8701;50.150;8.756;2022-09-27T09:22:48;4.97;;;1.10;;
17171;SDS011;8701;50.150;8.756;2022-09-27T09:27:06;2.80;;;0.90;;
17171;SDS011;8701;50.150;8.756;2022-09-27T09:31:20;2.93;;;1.37;;
17171;SDS011;8701;50.150;8.756;2022-09-27T09:35:31;2.93;;;1.00;;
17171;SDS011;8701;50.150;8.756;2022-09-27T09:39:40;2.10;;;0.70;;
17171;SDS011;8701;50.150;8.756;2022-09-27T09:43:47;1.70;;;0.83;;
17171;SDS011;8701;50.150;8.756;2022-09-27T09:47:55;4.30;;;0.80;;
17171;SDS011;8701;50.150;8.756;2022-09-27T09:52:09;2.63;;;0.80;;
17171;SDS011;8701;50.150;8.756;2022-09-27T09:56:15;0.80;;;0.80;;
17171;SDS011;8701;50.150;8.756;2022-09-27T10:00:22;1.97;;;0.70;;
17171;SDS011;8701;50.150;8.756;2022-09-27T10:04:27;7.30;;;1.00;;
17171;SDS011;8701;50.150;8.756;2022-09-27T10:08:34;2.90;;;1.07;;
17171;SDS011;8701;50.150;8.756;2022-09-27T10:12:55;4.40;;;1.87;;
17171;SDS011;8701;50.150;8.756;2022-09-27T10:17:03;2.50;;;1.00;;
17171;SDS011;8701;50.150;8.756;2022-09-27T10:21:12;3.40;;;0.97;;
17171;SDS011;8701;50.150;8.756;2022-09-27T10:25:19;2.90;;;0.80;;
17171;SDS011;8701;50.150;8.756;2022-09-27T10:29:28;2.30;;;1.10;;
17171;SDS011;8701;50.150;8.756;2022-09-27T10:33:32;1.20;;;0.80;;
17171;SDS011;8701;50.150;8.756;2022-09-27T10:37:40;1.80;;;0.73;;
17171;SDS011;8701;50.150;8.756;2022-09-27T10:41:48;1.37;;;0.80;;
17171;SDS011;8701;50.150;8.756;2022-09-27T10:46:02;2.20;;;0.80;;
17171;SDS011;8701;50.150;8.756;2022-09-27T10:50:15;2.00;;;0.90;;
17171;SDS011;8701;50.150;8.756;2022-09-27T10:54:34;2.07;;;0.90;;
17171;SDS011;8701;50.150;8.756;2022-09-27T10:58:39;0.73;;;0.73;;
17171;SDS011;8701;50.150;8.756;2022-09-27T11:02:49;0.90;;;0.80;;
17171;SDS011;8701;50.150;8.756;2022-09-27T11:07:05;2.17;;;1.20;;
17171;SDS011;8701;50.150;8.756;2022-09-27T11:11:15;1.27;;;0.70;;
17171;SDS011;8701;50.150;8.756;2022-09-27T11:15:23;4.10;;;1.13;;
17171;SDS011;8701;50.150;8.756;2022-09-27T11:19:43;1.00;;;0.70;;
17171;SDS011;8701;50.150;8.756;2022-09-27T11:23:58;1.23;;;0.70;;
17171;SDS011;8701;50.150;8.756;2022-09-27T11:28:20;1.33;;;0.70;;
17171;SDS011;8701;50.150;8.756;2022-09-27T11:32:36;1.53;;;1.03;;
17171;SDS011;8701;50.150;8.756;2022-09-27T11:36:56;1.60;;;0.80;;
17171;SDS011;8701;50.150;8.756;2022-09-27T11:45:43;1.20;;;0.70;;
17171;SDS011;8701;50.150;8.756;2022-09-27T11:54:31;0.87;;;0.80;;
17171;SDS011;8701;50.150;8.756;2022-09-27T11:58:47;1.43;;;0.90;;
17171;SDS011;8701;50.150;8.756;2022-09-27T12:07:40;2.30;;;1.70;;
17171;SDS011;8701;50.150;8.756;2022-09-27T12:11:50;2.30;;;0.80;;
17171;SDS011;8701;50.150;8.756;2022-09-27T12:15:57;1.33;;;0.80;;
17171;SDS011;8701;50.150;8.756;2022-09-27T12:20:08;7.60;;;1.10;;
17171;SDS011;8701;50.150;8.756;2022-09-27T12:24:21;1.10;;;0.97;;
17171;SDS011;8701;50.150;8.756;2022-09-27T12:28:39;1.03;;;0.80;;
17171;SDS011;8701;50.150;8.756;2022-09-27T12:32:51;1.63;;;0.90;;
17171;SDS011;8701;50.150;8.756;2022-09-27T12:37:00;2.20;;;0.80;;
17171;SDS011;8701;50.150;8.756;2022-09-27T12:41:08;1.17;;;0.90;;
17171;SDS011;8701;50.150;8.756;2022-09-27T12:45:31;0.90;;;0.80;;
17171;SDS011;8701;50.150;8.756;2022-09-27T12:49:44;1.10;;;0.90;;
17171;SDS011;8701;50.150;8.756;2022-09-27T12:53:55;3.00;;;1.10;;
17171;SDS011;8701;50.150;8.756;2022-09-27T13:02:44;1.93;;;1.00;;
17171;SDS011;8701;50.150;8.756;2022-09-27T13:07:12;1.10;;;1.00;;
17171;SDS011;8701;50.150;8.756;2022-09-27T13:11:28;1.73;;;1.07;;
17171;SDS011;8701;50.150;8.756;2022-09-27T13:15:40;1.63;;;1.07;;
17171;SDS011;8701;50.150;8.756;2022-09-27T13:19:46;1.70;;;0.90;;
17171;SDS011;8701;50.150;8.756;2022-09-27T13:23:49;1.73;;;0.90;;
17171;SDS011;8701;50.150;8.756;2022-09-27T13:27:53;1.00;;;0.90;;
17171;SDS011;8701;50.150;8.756;2022-09-27T13:36:39;3.03;;;1.20;;
17171;SDS011;8701;50.150;8.756;2022-09-27T13:40:45;1.63;;;1.30;;
17171;SDS011;8701;50.150;8.756;2022-09-27T13:45:02;2.00;;;1.00;;
17171;SDS011;8701;50.150;8.756;2022-09-27T13:49:22;2.50;;;0.93;;
17171;SDS011;8701;50.150;8.756;2022-09-27T13:53:55;1.10;;;1.00;;
17171;SDS011;8701;50.150;8.756;2022-09-27T13:57:59;2.97;;;1.20;;
17171;SDS011;8701;50.150;8.756;2022-09-27T14:02:11;1.17;;;1.00;;
17171;SDS011;8701;50.150;8.756;2022-09-27T14:06:21;7.17;;;1.20;;
17171;SDS011;8701;50.150;8.756;2022-09-27T14:10:27;1.83;;;0.90;;
17171;SDS011;8701;50.150;8.756;2022-09-27T14:14:31;1.20;;;1.10;;
17171;SDS011;8701;50.150;8.756;2022-09-27T14:18:34;7.37;;;1.30;;
17171;SDS011;8701;50.150;8.756;2022-09-27T14:22:52;6.53;;;1.13;;
17171;SDS011;8701;50.150;8.756;2022-09-27T14:27:04;1.63;;;1.13;;
17171;SDS011;8701;50.150;8.756;2022-09-27T14:31:12;3.10;;;1.60;;
17171;SDS011;8701;50.150;8.756;2022-09-27T14:35:35;2.90;;;1.80;;
17171;SDS011;8701;50.150;8.756;2022-09-27T14:40:17;1.00;;;0.83;;
17171;SDS011;8701;50.150;8.756;2022-09-27T14:44:21;1.30;;;1.20;;
17171;SDS011;8701;50.150;8.756;2022-09-27T14:48:26;1.57;;;1.10;;
17171;SDS011;8701;50.150;8.756;2022-09-27T14:52:29;4.73;;;1.30;;
17171;SDS011;8701;50.150;8.756;2022-09-27T14:56:36;1.77;;;0.97;;
17171;SDS011;8701;50.150;8.756;2022-09-27T15:00:39;3.50;;;0.90;;
17171;SDS011;8701;50.150;8.756;2022-09-27T15:04:47;1.10;;;0.93;;
17171;SDS011;8701;50.150;8.756;2022-09-27T15:08:51;1.03;;;0.80;;
17171;SDS011;8701;50.150;8.756;2022-09-27T15:12:56;2.70;;;1.70;;
17171;SDS011;8701;50.150;8.756;2022-09-27T15:17:03;2.13;;;1.10;;
17171;SDS011;8701;50.150;8.756;2022-09-27T15:21:06;1.20;;;1.00;;
17171;SDS011;8701;50.150;8.756;2022-09-27T15:25:17;4.00;;;1.10;;
17171;SDS011;8701;50.150;8.756;2022-09-27T15:29:23;2.10;;;1.10;;
17171;SDS011;8701;50.150;8.756;2022-09-27T15:33:27;1.70;;;1.10;;
17171;SDS011;8701;50.150;8.756;2022-09-27T15:37:33;1.17;;;1.07;;
17171;SDS011;8701;50.150;8.756;2022-09-27T15:41:58;1.23;;;0.83;;
17171;SDS011;8701;50.150;8.756;2022-09-27T15:46:04;0.93;;;0.93;;
17171;SDS011;8701;50.150;8.756;2022-09-27T15:50:32;3.40;;;1.10;;
17171;SDS011;8701;50.150;8.756;2022-09-27T15:54:35;1.63;;;1.00;;
17171;SDS011;8701;50.150;8.756;2022-09-27T15:58:38;1.63;;;0.90;;
17171;SDS011;8701;50.150;8.756;2022-09-27T16:02:42;3.40;;;2.43;;
17171;SDS011;8701;50.150;8.756;2022-09-27T16:06:45;6.43;;;1.50;;
17171;SDS011;8701;50.150;8.756;2022-09-27T16:10:49;1.53;;;1.17;;
17171;SDS011;8701;50.150;8.756;2022-09-27T16:14:52;3.17;;;2.10;;
17171;SDS011;8701;50.150;8.756;2022-09-27T16:18:56;3.87;;;2.50;;
17171;SDS011;8701;50.150;8.756;2022-09-27T16:22:58;2.37;;;1.40;;
17171;SDS011;8701;50.150;8.756;2022-09-27T16:27:00;4.77;;;1.77;;
17171;SDS011;8701;50.150;8.756;2022-09-27T16:31:03;3.07;;;1.73;;
17171;SDS011;8701;50.150;8.756;2022-09-27T16:35:08;1.40;;;1.30;;
17171;SDS011;8701;50.150;8.756;2022-09-27T16:39:12;1.97;;;1.17;;
17171;SDS011;8701;50.150;8.756;2022-09-27T16:43:15;1.87;;;1.40;;
17171;SDS011;8701;50.150;8.756;2022-09-27T16:47:17;1.60;;;1.13;;
17171;SDS011;8701;50.150;8.756;2022-09-27T16:51:20;2.90;;;1.40;;
17171;SDS011;8701;50.150;8.756;2022-09-27T16:55:40;5.70;;;1.73;;
17171;SDS011;8701;50.150;8.756;2022-09-27T16:59:42;1.33;;;1.17;;
17171;SDS011;8701;50.150;8.756;2022-09-27T17:03:49;1.63;;;1.30;;
17171;SDS011;8701;50.150;8.756;2022-09-27T17:07:54;1.50;;;1.40;;
17171;SDS011;8701;50.150;8.756;2022-09-27T17:11:56;2.10;;;1.90;;
17171;SDS011;8701;50.150;8.756;2022-09-27T17:16:03;7.63;;;4.07;;
17171;SDS011;8701;50.150;8.756;2022-09-27T17:20:06;9.23;;;4.50;;
17171;SDS011;8701;50.150;8.756;2022-09-27T17:24:09;3.37;;;2.63;;
17171;SDS011;8701;50.150;8.756;2022-09-27T17:28:12;3.80;;;2.83;;
17171;SDS011;8701;50.150;8.756;2022-09-27T17:32:14;2.37;;;2.17;;
17171;SDS011;8701;50.150;8.756;2022-09-27T17:36:17;6.60;;;2.97;;
17171;SDS011;8701;50.150;8.756;2022-09-27T17:40:21;4.77;;;3.23;;
17171;SDS011;8701;50.150;8.756;2022-09-27T17:44:24;4.60;;;3.20;;
17171;SDS011;8701;50.150;8.756;2022-09-27T17:48:26;5.50;;;4.70;;
17171;SDS011;8701;50.150;8.756;2022-09-27T17:52:46;3.20;;;2.90;;
17171;SDS011;8701;50.150;8.756;2022-09-27T17:56:50;3.57;;;2.57;;
17171;SDS011;8701;50.150;8.756;2022-09-27T18:00:52;2.53;;;2.33;;
17171;SDS011;8701;50.150;8.756;2022-09-27T18:04:54;5.20;;;3.20;;
17171;SDS011;8701;50.150;8.756;2022-09-27T18:08:57;3.10;;;2.63;;
17171;SDS011;8701;50.150;8.756;2022-09-27T18:13:00;6.00;;;3.10;;
17171;SDS011;8701;50.150;8.756;2022-09-27T18:17:05;5.90;;;4.30;;
17171;SDS011;8701;50.150;8.756;2022-09-27T18:21:08;7.23;;;3.23;;
17171;SDS011;8701;50.150;8.756;2022-09-27T18:25:13;3.60;;;2.60;;
17171;SDS011;8701;50.150;8.756;2022-09-27T18:29:17;6.70;;;2.77;;
17171;SDS011;8701;50.150;8.756;2022-09-27T18:33:19;2.80;;;2.23;;
17171;SDS011;8701;50.150;8.756;2022-09-27T18:37:24;2.70;;;2.50;;
17171;SDS011;8701;50.150;8.756;2022-09-27T18:41:30;5.90;;;3.10;;
17171;SDS011;8701;50.150;8.756;2022-09-27T18:45:35;3.43;;;3.13;;
17171;SDS011;8701;50.150;8.756;2022-09-27T18:49:38;4.80;;;3.50;;
17171;SDS011;8701;50.150;8.756;2022-09-27T18:53:41;4.70;;;3.30;;
17171;SDS011;8701;50.150;8.756;2022-09-27T18:57:43;11.00;;;3.50;;
17171;SDS011;8701;50.150;8.756;2022-09-27T19:01:47;9.00;;;3.73;;
17171;SDS011;8701;50.150;8.756;2022-09-27T19:05:52;4.87;;;2.80;;
17171;SDS011;8701;50.150;8.756;2022-09-27T19:09:55;5.87;;;3.20;;
17171;SDS011;8701;50.150;8.756;2022-09-27T19:13:57;3.57;;;2.73;;
17171;SDS011;8701;50.150;8.756;2022-09-27T19:18:04;3.87;;;2.90;;
17171;SDS011;8701;50.150;8.756;2022-09-27T19:22:06;3.67;;;3.07;;
17171;SDS011;8701;50.150;8.756;2022-09-27T19:26:10;2.60;;;2.30;;
17171;SDS011;8701;50.150;8.756;2022-09-27T19:30:14;5.13;;;2.60;;
17171;SDS011;8701;50.150;8.756;2022-09-27T19:34:18;6.13;;;3.47;;
17171;SDS011;8701;50.150;8.756;2022-09-27T19:38:20;5.60;;;3.67;;
17171;SDS011;8701;50.150;8.756;2022-09-27T19:42:22;3.90;;;2.37;;
17171;SDS011;8701;50.150;8.756;2022-09-27T19:46:24;7.17;;;3.67;;
17171;SDS011;8701;50.150;8.756;2022-09-27T19:50:28;8.40;;;4.53;;
17171;SDS011;8701;50.150;8.756;2022-09-27T19:54:30;4.87;;;3.27;;
17171;SDS011;8701;50.150;8.756;2022-09-27T19:58:33;2.60;;;2.10;;
17171;SDS011;8701;50.150;8.756;2022-09-27T20:02:37;3.23;;;2.17;;
17171;SDS011;8701;50.150;8.756;2022-09-27T20:06:41;2.60;;;1.90;;
17171;SDS011;8701;50.150;8.756;2022-09-27T20:10:43;2.77;;;2.50;;
17171;SDS011;8701;50.150;8.756;2022-09-27T20:14:52;2.47;;;2.27;;
17171;SDS011;8701;50.150;8.756;2022-09-27T20:18:55;2.43;;;2.10;;
17171;SDS011;8701;50.150;8.756;2022-09-27T20:23:04;3.00;;;2.57;;
17171;SDS011;8701;50.150;8.756;2022-09-27T20:27:06;4.30;;;2.60;;
17171;SDS011;8701;50.150;8.756;2022-09-27T20:31:09;3.00;;;2.50;;
17171;SDS011;8701;50.150;8.756;2022-09-27T20:35:12;4.13;;;2.37;;
17171;SDS011;8701;50.150;8.756;2022-09-27T20:39:16;4.00;;;2.20;;
17171;SDS011;8701;50.150;8.756;2022-09-27T20:43:21;2.60;;;2.13;;
17171;SDS011;8701;50.150;8.756;2022-09-27T20:47:26;3.50;;;1.87;;
17171;SDS011;8701;50.150;8.756;2022-09-27T20:51:29;2.10;;;1.90;;
17171;SDS011;8701;50.150;8.756;2022-09-27T20:55:34;3.20;;;2.00;;
17171;SDS011;8701;50.150;8.756;2022-09-27T20:59:36;3.73;;;2.23;;
17171;SDS011;8701;50.150;8.756;2022-09-27T21:03:38;1.97;;;1.77;;
17171;SDS011;8701;50.150;8.756;2022-09-27T21:07:40;4.80;;;1.70;;
17171;SDS011;8701;50.150;8.756;2022-09-27T21:11:44;5.43;;;2.00;;
17171;SDS011;8701;50.150;8.756;2022-09-27T21:15:46;2.60;;;1.83;;
17171;SDS011;8701;50.150;8.756;2022-09-27T21:19:49;4.50;;;1.90;;
17171;SDS011;8701;50.150;8.756;2022-09-27T21:23:52;3.00;;;2.00;;
17171;SDS011;8701;50.150;8.756;2022-09-27T21:27:57;2.87;;;2.20;;
17171;SDS011;8701;50.150;8.756;2022-09-27T21:31:59;2.97;;;2.00;;
17171;SDS011;8701;50.150;8.756;2022-09-27T21:36:02;1.77;;;1.67;;
17171;SDS011;8701;50.150;8.756;2022-09-27T21:40:06;3.73;;;1.90;;
17171;SDS011;8701;50.150;8.756;2022-09-27T21:44:10;2.80;;;1.80;;
17171;SDS011;8701;50.150;8.756;2022-09-27T21:48:12;3.00;;;2.03;;
17171;SDS011;8701;50.150;8.756;2022-09-27T21:52:15;3.13;;;1.53;;
17171;SDS011;8701;50.150;8.756;2022-09-27T21:56:17;3.27;;;1.60;;
17171;SDS011;8701;50.150;8.756;2022-09-27T22:00:22;2.90;;;1.90;;
17171;SDS011;8701;50.150;8.756;2022-09-27T22:04:25;2.80;;;1.90;;
17171;SDS011;8701;50.150;8.756;2022-09-27T22:08:27;2.20;;;2.00;;
17171;SDS011;8701;50.150;8.756;2022-09-27T22:12:30;4.30;;;2.40;;
17171;SDS011;8701;50.150;8.756;2022-09-27T22:16:33;4.57;;;1.73;;
17171;SDS011;8701;50.150;8.756;2022-09-27T22:20:36;4.37;;;2.10;;
17171;SDS011;8701;50.150;8.756;2022-09-27T22:24:38;4.13;;;2.10;;
17171;SDS011;8701;50.150;8.756;2022-09-27T22:28:40;5.97;;;2.20;;
17171;SDS011;8701;50.150;8.756;2022-09-27T22:32:44;2.03;;;1.80;;
17171;SDS011;8701;50.150;8.756;2022-09-27T22:36:47;3.13;;;1.80;;
17171;SDS011;8701;50.150;8.756;2022-09-27T22:40:52;4.50;;;1.90;;
17171;SDS011;8701;50.150;8.756;2022-09-27T22:44:55;2.80;;;1.60;;
17171;SDS011;8701;50.150;8.756;2022-09-27T22:48:59;5.40;;;2.27;;
17171;SDS011;8701;50.150;8.756;2022-09-27T22:53:01;2.67;;;2.10;;
17171;SDS011;8701;50.150;8.756;2022-09-27T22:57:03;2.40;;;2.07;;
17171;SDS011;8701;50.150;8.756;2022-09-27T23:01:06;4.60;;;2.13;;
17171;SDS011;8701;50.150;8.756;2022-09-27T23:05:10;6.00;;;2.13;;
17171;SDS011;8701;50.150;8.756;2022-09-27T23:09:12;4.70;;;2.13;;
17171;SDS011;8701;50.150;8.756;2022-09-27T23:13:15;1.83;;;1.73;;
17171;SDS011;8701;50.150;8.756;2022-09-27T23:17:17;4.40;;;1.70;;
17171;SDS011;8701;50.150;8.756;2022-09-27T23:21:21;3.33;;;2.20;;
17171;SDS011;8701;50.150;8.756;2022-09-27T23:25:25;1.80;;;1.70;;
17171;SDS011;8701;50.150;8.756;2022-09-27T23:29:27;3.50;;;1.83;;
17171;SDS011;8701;50.150;8.756;2022-09-27T23:33:29;3.50;;;2.10;;
17171;SDS011;8701;50.150;8.756;2022-09-27T23:37:34;5.57;;;2.20;;
17171;SDS011;8701;50.150;8.756;2022-09-27T23:41:36;8.03;;;2.67;;
17171;SDS011;8701;50.150;8.756;2022-09-27T23:45:39;3.30;;;1.60;;
17171;SDS011;8701;50.150;8.756;2022-09-27T23:49:43;4.13;;;2.47;;
17171;SDS011;8701;50.150;8.756;2022-09-27T23:53:46;4.37;;;2.07;;
17171;SDS011;8701;50.150;8.756;2022-09-27T23:57:49;2.10;;;2.00;;
